createdAt,value
2022-12-15T00:01:23.827Z,0.88
2022-12-15T00:04:08.750Z,1.05
2022-12-15T00:06:54.125Z,1.20
2022-12-15T00:09:39.147Z,2.33
2022-12-15T00:12:24.284Z,1.33
2022-12-15T00:15:09.251Z,0.70
2022-12-15T00:17:54.197Z,1.20
2022-12-15T00:20:39.084Z,1.45
2022-12-15T00:23:31.136Z,1.38
2022-12-15T00:29:01.206Z,1.33
2022-12-15T00:31:46.380Z,1.35
2022-12-15T00:34:31.337Z,1.35
2022-12-15T00:37:16.532Z,1.77
2022-12-15T00:39:43.035Z,4.22
2022-12-15T00:42:10.095Z,2.83
2022-12-15T00:44:37.588Z,2.85
2022-12-15T00:47:04.528Z,2.92
2022-12-15T00:49:50.557Z,2.60
2022-12-15T00:52:36.707Z,5.03
2022-12-15T00:55:22.513Z,6.47
2022-12-15T00:58:07.776Z,4.20
2022-12-15T01:00:52.935Z,6.13
2022-12-15T01:03:39.909Z,7.00
2022-12-15T01:06:25.886Z,4.15
2022-12-15T01:09:10.720Z,3.78
2022-12-15T01:11:55.826Z,2.25
2022-12-15T01:14:40.891Z,2.55
2022-12-15T01:17:25.889Z,3.00
2022-12-15T01:20:10.959Z,3.35
2022-12-15T01:22:37.632Z,6.07
2022-12-15T01:25:04.924Z,8.73
2022-12-15T01:27:31.336Z,7.38
2022-12-15T01:29:57.716Z,6.53
2022-12-15T01:32:24.013Z,5.75
2022-12-15T01:34:50.408Z,8.65
2022-12-15T01:37:16.860Z,5.45
2022-12-15T01:40:02.160Z,6.78
2022-12-15T01:42:28.547Z,4.97
2022-12-15T01:45:14.870Z,3.70
2022-12-15T01:47:41.417Z,4.82
2022-12-15T01:50:13.362Z,5.07
2022-12-15T01:55:06.623Z,6.40
2022-12-15T01:57:33.889Z,6.55
2022-12-15T02:00:02.095Z,5.95
2022-12-15T02:02:32.359Z,4.68
2022-12-15T02:05:01.087Z,4.47
2022-12-15T02:07:27.624Z,3.65
2022-12-15T02:09:54.913Z,3.55
2022-12-15T02:12:40.659Z,7.72
2022-12-15T02:15:09.966Z,5.25
2022-12-15T02:17:39.353Z,6.40
2022-12-15T02:20:26.112Z,5.38
2022-12-15T02:23:10.723Z,5.20
2022-12-15T02:25:39.775Z,3.08
2022-12-15T02:28:08.417Z,4.78
2022-12-15T02:30:38.117Z,6.07
2022-12-15T02:33:04.530Z,5.28
2022-12-15T02:35:45.790Z,5.25
2022-12-15T02:38:12.181Z,6.27
2022-12-15T02:40:39.188Z,5.22
2022-12-15T02:43:06.571Z,3.97
2022-12-15T02:45:36.417Z,5.63
2022-12-15T02:48:09.006Z,2.72
2022-12-15T02:50:38.107Z,2.83
2022-12-15T02:53:07.632Z,2.25
2022-12-15T02:55:52.575Z,2.90
2022-12-15T02:58:18.855Z,2.83
2022-12-15T03:00:47.237Z,4.07
2022-12-15T03:03:14.654Z,3.83
2022-12-15T03:05:41.115Z,2.78
2022-12-15T03:08:09.136Z,3.63
2022-12-15T03:10:35.552Z,2.80
2022-12-15T03:13:01.878Z,2.50
2022-12-15T03:15:34.934Z,3.95
2022-12-15T03:18:01.790Z,3.78
2022-12-15T03:20:28.119Z,2.35
2022-12-15T03:22:54.446Z,2.13
2022-12-15T03:25:20.907Z,1.73
2022-12-15T03:27:47.519Z,1.73
2022-12-15T03:30:13.967Z,1.48
2022-12-15T03:32:40.327Z,1.45
2022-12-15T03:35:06.978Z,2.53
2022-12-15T03:37:33.332Z,3.22
2022-12-15T03:39:59.671Z,3.08
2022-12-15T03:42:44.749Z,2.28
2022-12-15T03:45:11.128Z,2.42
2022-12-15T03:47:40.920Z,1.98
2022-12-15T03:50:07.451Z,1.83
2022-12-15T03:52:33.748Z,1.25
2022-12-15T03:55:00.106Z,2.15
2022-12-15T03:57:26.551Z,2.42
2022-12-15T03:59:53.005Z,2.45
2022-12-15T04:02:19.409Z,1.75
2022-12-15T04:04:45.900Z,2.40
2022-12-15T04:07:12.293Z,4.75
2022-12-15T04:09:38.621Z,3.63
2022-12-15T04:12:04.935Z,3.30
2022-12-15T04:14:31.346Z,3.22
2022-12-15T04:16:57.732Z,3.20
2022-12-15T04:19:42.586Z,3.20
2022-12-15T04:22:11.550Z,3.40
2022-12-15T04:24:58.675Z,2.95
2022-12-15T04:27:43.828Z,1.33
2022-12-15T04:30:29.493Z,1.65
2022-12-15T04:33:14.458Z,1.20
2022-12-15T04:35:59.741Z,1.08
2022-12-15T04:38:50.148Z,1.40
2022-12-15T04:41:36.198Z,1.60
2022-12-15T04:44:21.210Z,1.05
2022-12-15T04:47:06.260Z,1.13
2022-12-15T04:49:51.203Z,1.45
2022-12-15T04:52:36.332Z,0.85
2022-12-15T04:55:21.188Z,1.23
2022-12-15T04:58:06.152Z,1.13
2022-12-15T05:00:51.191Z,1.17
2022-12-15T05:03:36.706Z,0.98
2022-12-15T05:06:21.779Z,1.50
2022-12-15T05:09:06.826Z,1.33
2022-12-15T05:11:51.992Z,1.30
2022-12-15T05:14:37.020Z,1.05
2022-12-15T05:17:22.324Z,0.70
2022-12-15T05:20:07.473Z,0.52
2022-12-15T05:22:52.785Z,2.22
2022-12-15T05:25:37.752Z,1.33
2022-12-15T05:28:25.686Z,1.05
2022-12-15T05:31:10.947Z,3.08
2022-12-15T05:33:37.284Z,3.05
2022-12-15T05:36:04.257Z,2.90
2022-12-15T05:38:30.655Z,2.13
2022-12-15T05:40:57.656Z,2.88
2022-12-15T05:43:26.504Z,1.33
2022-12-15T05:45:53.268Z,1.00
2022-12-15T05:48:19.649Z,1.75
2022-12-15T05:50:45.946Z,1.27
2022-12-15T05:53:12.268Z,1.48
2022-12-15T05:55:38.589Z,0.98
2022-12-15T05:58:04.984Z,1.38
2022-12-15T06:00:31.333Z,2.10
2022-12-15T06:02:57.993Z,1.67
2022-12-15T06:05:24.370Z,1.60
2022-12-15T06:07:50.686Z,0.80
2022-12-15T06:10:17.090Z,1.83
2022-12-15T06:12:43.548Z,2.00
2022-12-15T06:15:10.064Z,1.55
2022-12-15T06:17:36.341Z,1.45
2022-12-15T06:20:02.899Z,0.88
2022-12-15T06:22:29.717Z,2.22
2022-12-15T06:24:56.231Z,2.13
2022-12-15T06:27:22.580Z,3.03
2022-12-15T06:29:49.599Z,3.35
2022-12-15T06:32:15.937Z,2.95
2022-12-15T06:34:42.361Z,3.33
2022-12-15T06:37:08.794Z,2.95
2022-12-15T06:39:35.065Z,3.08
2022-12-15T06:42:01.472Z,1.27
2022-12-15T06:44:27.808Z,1.48
2022-12-15T06:46:54.192Z,1.33
2022-12-15T06:49:20.880Z,1.85
2022-12-15T06:51:48.908Z,2.15
2022-12-15T06:54:15.483Z,2.75
2022-12-15T06:56:42.396Z,2.75
2022-12-15T06:59:10.584Z,1.75
2022-12-15T07:01:37.043Z,1.20
2022-12-15T07:04:05.411Z,1.00
2022-12-15T07:06:36.137Z,1.10
2022-12-15T07:09:02.809Z,9.30
2022-12-15T07:11:29.669Z,21.25
2022-12-15T07:13:56.075Z,9.77
2022-12-15T07:16:22.969Z,7.10
2022-12-15T07:18:49.497Z,5.05
2022-12-15T07:21:16.050Z,8.63
2022-12-15T07:23:58.568Z,10.57
2022-12-15T07:26:25.852Z,15.30
2022-12-15T07:28:53.345Z,18.27
2022-12-15T07:31:20.076Z,12.75
2022-12-15T07:33:48.296Z,13.98
2022-12-15T07:36:15.024Z,31.58
2022-12-15T07:38:41.384Z,13.73
2022-12-15T07:41:08.338Z,9.60
2022-12-15T07:43:35.654Z,10.88
2022-12-15T07:46:02.963Z,9.95
2022-12-15T07:48:29.512Z,5.90
2022-12-15T07:51:07.399Z,5.57
2022-12-15T07:53:35.808Z,4.75
2022-12-15T07:56:09.115Z,3.45
2022-12-15T07:58:36.546Z,13.10
2022-12-15T08:01:04.715Z,8.65
2022-12-15T08:03:31.524Z,7.00
2022-12-15T08:06:03.795Z,6.78
2022-12-15T08:08:31.192Z,6.10
2022-12-15T08:10:57.744Z,3.42
2022-12-15T08:14:00.199Z,3.88
2022-12-15T08:16:11.178Z,1.80
2022-12-15T08:18:37.760Z,2.30
2022-12-15T08:21:08.348Z,4.45
2022-12-15T08:23:35.486Z,8.38
2022-12-15T08:26:09.605Z,5.68
2022-12-15T08:28:36.652Z,2.90
2022-12-15T08:31:10.588Z,1.85
2022-12-15T08:33:37.548Z,12.95
2022-12-15T08:36:05.380Z,14.77
2022-12-15T08:38:32.289Z,13.25
2022-12-15T08:40:58.853Z,10.70
2022-12-15T08:43:25.147Z,8.38
2022-12-15T08:45:51.618Z,5.68
2022-12-15T08:48:17.954Z,6.45
2022-12-15T08:50:45.494Z,10.70
2022-12-15T08:53:41.351Z,8.18
2022-12-15T08:56:05.828Z,4.18
2022-12-15T08:58:32.324Z,4.70
2022-12-15T09:01:02.379Z,2.63
2022-12-15T09:03:29.184Z,3.63
2022-12-15T09:05:57.586Z,3.47
2022-12-15T09:08:24.380Z,3.22
2022-12-15T09:10:52.371Z,2.40
2022-12-15T09:13:19.292Z,2.38
2022-12-15T09:16:09.014Z,1.67
2022-12-15T09:18:32.348Z,7.35
2022-12-15T09:21:03.198Z,5.25
2022-12-15T09:23:30.056Z,4.32
2022-12-15T09:26:00.649Z,10.32
2022-12-15T09:28:28.410Z,6.68
2022-12-15T09:30:55.074Z,7.15
2022-12-15T09:33:21.565Z,4.03
2022-12-15T09:35:51.280Z,3.08
2022-12-15T09:38:17.692Z,2.63
2022-12-15T09:40:44.173Z,3.47
2022-12-15T09:43:34.444Z,3.80
2022-12-15T09:46:05.156Z,6.70
2022-12-15T09:48:36.118Z,7.72
2022-12-15T09:51:04.358Z,12.07
2022-12-15T09:53:54.338Z,11.40
2022-12-15T09:56:23.477Z,7.45
2022-12-15T09:58:53.082Z,5.80
2022-12-15T10:01:33.867Z,35.05
2022-12-15T10:04:12.662Z,19.55
2022-12-15T10:06:45.272Z,19.20
2022-12-15T10:09:30.165Z,17.45
2022-12-15T10:11:59.603Z,21.33
2022-12-15T10:14:41.020Z,19.42
2022-12-15T10:17:22.790Z,14.90
2022-12-15T10:19:58.056Z,13.23
2022-12-15T10:22:26.342Z,7.30
2022-12-15T10:25:10.039Z,7.25
2022-12-15T10:27:40.711Z,5.43
2022-12-15T10:30:11.200Z,2.90
2022-12-15T10:32:56.472Z,4.03
2022-12-15T10:35:25.535Z,7.15
2022-12-15T10:37:52.014Z,5.78
2022-12-15T10:40:19.543Z,4.57
2022-12-15T10:42:50.211Z,4.38
2022-12-15T10:45:52.168Z,4.20
2022-12-15T10:48:19.732Z,2.65
2022-12-15T10:50:46.991Z,2.90
2022-12-15T10:53:51.721Z,11.07
2022-12-15T10:56:20.013Z,8.93
2022-12-15T10:58:50.237Z,5.63
2022-12-15T11:01:18.746Z,7.18
2022-12-15T11:03:46.319Z,18.33
2022-12-15T11:06:17.124Z,23.17
2022-12-15T11:08:44.049Z,14.80
2022-12-15T11:11:52.991Z,8.15
2022-12-15T11:14:21.095Z,6.10
2022-12-15T11:16:54.777Z,5.07
2022-12-15T11:19:41.833Z,8.23
2022-12-15T11:22:14.363Z,3.45
2022-12-15T11:24:43.765Z,3.08
2022-12-15T11:27:13.156Z,2.33
2022-12-15T11:29:39.503Z,3.83
2022-12-15T11:32:07.477Z,2.83
2022-12-15T11:34:38.302Z,21.52
2022-12-15T11:37:04.596Z,24.45
2022-12-15T11:39:49.939Z,21.85
2022-12-15T11:42:24.650Z,25.65
2022-12-15T11:45:01.719Z,15.30
2022-12-15T11:47:43.100Z,10.10
2022-12-15T11:50:21.752Z,7.00
2022-12-15T11:52:57.251Z,5.90
2022-12-15T11:58:36.282Z,3.70
2022-12-15T12:01:21.562Z,4.38
2022-12-15T12:04:20.510Z,4.45
2022-12-15T12:06:55.808Z,4.57
2022-12-15T12:09:25.195Z,7.78
2022-12-15T12:11:57.168Z,6.93
2022-12-15T12:16:49.860Z,5.55
2022-12-15T12:19:19.780Z,4.68
2022-12-15T12:21:51.300Z,2.50
2022-12-15T12:24:20.521Z,4.00
2022-12-15T12:26:50.215Z,2.38
2022-12-15T12:29:28.317Z,3.13
2022-12-15T12:32:02.219Z,5.25
2022-12-15T12:34:35.125Z,8.98
2022-12-15T12:37:09.628Z,9.18
2022-12-15T12:39:36.312Z,4.68
2022-12-15T12:42:18.124Z,3.97
2022-12-15T12:44:44.664Z,3.00
2022-12-15T12:47:21.265Z,4.10
2022-12-15T12:49:52.107Z,10.75
2022-12-15T12:52:38.655Z,17.52
2022-12-15T12:55:17.568Z,25.45
2022-12-15T12:57:44.323Z,25.00
2022-12-15T13:00:20.066Z,14.48
2022-12-15T13:02:50.525Z,8.88
2022-12-15T13:05:31.427Z,6.60
2022-12-15T13:08:05.005Z,10.13
2022-12-15T13:10:47.342Z,6.75
2022-12-15T13:13:32.357Z,5.82
2022-12-15T13:16:02.329Z,5.85
2022-12-15T13:18:29.137Z,5.65
2022-12-15T13:20:56.515Z,9.60
2022-12-15T13:23:25.648Z,6.40
2022-12-15T13:25:57.877Z,6.65
2022-12-15T13:28:40.532Z,4.70
2022-12-15T13:31:19.291Z,3.30
2022-12-15T13:33:55.559Z,4.90
2022-12-15T13:36:37.067Z,3.08
2022-12-15T13:39:12.552Z,3.05
2022-12-15T13:44:52.573Z,4.50
2022-12-15T13:47:18.895Z,4.93
2022-12-15T13:50:04.063Z,5.35
2022-12-15T13:53:16.671Z,9.27
2022-12-15T13:55:34.294Z,6.38
2022-12-15T13:58:03.713Z,6.65
2022-12-15T14:00:30.066Z,10.38
2022-12-15T14:03:07.006Z,9.88
2022-12-15T14:05:33.548Z,8.15
2022-12-15T14:08:01.127Z,9.18
2022-12-15T14:10:33.367Z,6.35
2022-12-15T14:13:01.668Z,4.70
2022-12-15T14:15:29.415Z,4.57
2022-12-15T14:17:56.291Z,2.67
2022-12-15T14:20:24.572Z,3.55
2022-12-15T14:22:52.513Z,2.72
2022-12-15T14:25:23.227Z,3.83
2022-12-15T14:27:50.686Z,3.55
2022-12-15T14:30:23.373Z,1.77
2022-12-15T14:32:58.370Z,1.60
2022-12-15T14:35:25.174Z,0.82
2022-12-15T14:37:53.070Z,2.33
2022-12-15T14:40:24.953Z,13.07
2022-12-15T14:42:55.005Z,19.67
2022-12-15T14:45:25.943Z,23.45
2022-12-15T14:48:13.692Z,17.38
2022-12-15T14:50:45.632Z,24.05
2022-12-15T14:53:15.300Z,22.13
2022-12-15T14:55:41.659Z,19.00
2022-12-15T14:58:27.391Z,15.85
2022-12-15T15:00:54.884Z,16.80
2022-12-15T15:03:09.224Z,3.65
2022-12-15T15:03:27.219Z,20.33
2022-12-15T15:08:25.776Z,18.13
2022-12-15T15:10:52.908Z,16.60
2022-12-15T15:13:21.445Z,14.82
2022-12-15T15:15:55.101Z,14.10
2022-12-15T15:18:24.518Z,18.75
2022-12-15T15:20:59.276Z,17.52
2022-12-15T15:23:25.985Z,30.08
2022-12-15T15:26:18.672Z,35.55
2022-12-15T15:28:45.359Z,26.38
2022-12-15T15:31:27.418Z,22.10
2022-12-15T15:33:56.892Z,34.20
2022-12-15T15:36:26.535Z,30.10
2022-12-15T15:38:52.870Z,19.55
2022-12-15T15:41:26.853Z,16.77
2022-12-15T15:43:53.142Z,14.65
2022-12-15T15:46:23.872Z,19.73
2022-12-15T15:48:52.029Z,14.65
2022-12-15T15:51:18.645Z,19.50
2022-12-15T15:53:45.411Z,11.40
2022-12-15T15:56:13.986Z,8.65
2022-12-15T15:58:40.694Z,8.88
2022-12-15T16:01:12.896Z,11.38
2022-12-15T16:03:40.377Z,12.27
2022-12-15T16:06:11.786Z,9.43
2022-12-15T16:08:38.164Z,7.78
2022-12-15T16:11:05.177Z,7.68
2022-12-15T16:13:31.527Z,6.30
2022-12-15T16:15:57.898Z,4.40
2022-12-15T16:18:24.265Z,7.97
2022-12-15T16:20:51.524Z,5.13
2022-12-15T16:23:19.713Z,4.40
2022-12-15T16:25:50.855Z,4.68
2022-12-15T16:28:18.938Z,6.43
2022-12-15T16:30:45.245Z,4.93
2022-12-15T16:33:12.294Z,3.60
2022-12-15T16:35:39.768Z,2.88
2022-12-15T16:38:06.631Z,2.35
2022-12-15T16:40:37.578Z,2.92
2022-12-15T16:43:09.765Z,3.75
2022-12-15T16:45:36.147Z,2.40
2022-12-15T16:48:02.746Z,3.40
2022-12-15T16:50:30.560Z,5.15
2022-12-15T16:52:57.089Z,5.97
2022-12-15T16:55:25.473Z,6.35
2022-12-15T16:57:52.660Z,6.60
2022-12-15T17:00:22.917Z,5.78
2022-12-15T17:02:49.567Z,6.38
2022-12-15T17:05:16.410Z,3.88
2022-12-15T17:07:43.471Z,7.07
2022-12-15T17:10:21.187Z,5.53
2022-12-15T17:12:47.752Z,5.57
2022-12-15T17:15:18.676Z,5.53
2022-12-15T17:17:45.227Z,3.00
2022-12-15T17:20:31.824Z,2.63
2022-12-15T17:23:02.075Z,1.65
2022-12-15T17:26:18.082Z,1.85
2022-12-15T17:28:24.446Z,1.38
2022-12-15T17:30:51.709Z,1.70
2022-12-15T17:33:19.411Z,1.33
2022-12-15T17:35:55.901Z,0.90
2022-12-15T17:38:22.984Z,0.98
2022-12-15T17:40:50.172Z,1.00
2022-12-15T17:43:18.608Z,0.57
2022-12-15T17:45:45.472Z,1.55
2022-12-15T17:48:12.627Z,1.20
2022-12-15T17:50:39.492Z,1.90
2022-12-15T17:53:06.403Z,1.92
2022-12-15T17:55:35.435Z,2.03
2022-12-15T17:58:02.812Z,1.95
2022-12-15T18:00:30.748Z,2.70
2022-12-15T18:02:58.330Z,1.98
2022-12-15T18:05:26.701Z,1.35
2022-12-15T18:07:55.237Z,1.60
2022-12-15T18:10:23.324Z,3.30
2022-12-15T18:12:49.756Z,3.25
2022-12-15T18:15:20.296Z,2.33
2022-12-15T18:17:46.775Z,4.25
2022-12-15T18:20:13.503Z,3.88
2022-12-15T18:22:40.067Z,6.00
2022-12-15T18:25:13.544Z,5.43
2022-12-15T18:27:40.358Z,6.22
2022-12-15T18:30:07.104Z,3.97
2022-12-15T18:32:38.276Z,5.05
2022-12-15T18:35:33.851Z,2.72
2022-12-15T18:38:00.149Z,3.38
2022-12-15T18:40:28.193Z,2.00
2022-12-15T18:42:54.582Z,0.90
2022-12-15T18:45:22.457Z,2.65
2022-12-15T18:47:49.167Z,1.10
2022-12-15T18:50:20.765Z,1.45
2022-12-15T18:52:48.536Z,3.20
2022-12-15T18:55:16.724Z,4.85
2022-12-15T18:57:43.215Z,7.20
2022-12-15T19:00:09.537Z,9.75
2022-12-15T19:02:36.000Z,5.88
2022-12-15T19:05:02.448Z,6.80
2022-12-15T19:07:28.770Z,9.18
2022-12-15T19:09:55.219Z,5.50
2022-12-15T19:12:21.846Z,3.78
2022-12-15T19:14:49.566Z,7.82
2022-12-15T19:17:35.815Z,5.63
2022-12-15T19:20:21.774Z,4.35
2022-12-15T19:22:48.735Z,2.70
2022-12-15T19:25:25.056Z,2.67
2022-12-15T19:27:55.073Z,4.43
2022-12-15T19:30:22.100Z,1.50
2022-12-15T19:32:48.820Z,1.48
2022-12-15T19:35:15.249Z,2.67
2022-12-15T19:37:42.751Z,3.25
2022-12-15T19:40:16.703Z,3.60
2022-12-15T19:42:44.367Z,1.52
2022-12-15T19:45:21.410Z,1.45
2022-12-15T19:47:48.064Z,0.88
2022-12-15T19:50:15.625Z,0.52
2022-12-15T19:52:43.080Z,0.60
2022-12-15T19:55:14.056Z,1.45
2022-12-15T19:57:40.400Z,2.57
2022-12-15T20:00:13.836Z,9.75
2022-12-15T20:02:40.257Z,9.15
2022-12-15T20:05:06.825Z,14.60
2022-12-15T20:07:33.509Z,11.10
2022-12-15T20:10:00.260Z,15.23
2022-12-15T20:12:27.352Z,12.80
2022-12-15T20:14:53.841Z,6.53
2022-12-15T20:17:20.260Z,5.53
2022-12-15T20:19:46.679Z,4.60
2022-12-15T20:22:14.350Z,2.45
2022-12-15T20:24:41.783Z,2.58
2022-12-15T20:27:15.303Z,2.28
2022-12-15T20:29:41.645Z,2.85
2022-12-15T20:32:15.621Z,1.23
2022-12-15T20:34:42.109Z,2.45
2022-12-15T20:37:23.148Z,3.63
2022-12-15T20:39:55.532Z,1.77
2022-12-15T20:42:23.708Z,1.42
2022-12-15T20:44:50.109Z,2.83
2022-12-15T20:47:21.144Z,1.80
2022-12-15T20:49:48.676Z,0.90
2022-12-15T20:52:19.024Z,1.45
2022-12-15T20:54:45.400Z,1.52
2022-12-15T20:57:12.051Z,3.97
2022-12-15T20:59:38.335Z,3.70
2022-12-15T21:02:16.608Z,5.10
2022-12-15T21:04:43.050Z,3.15
2022-12-15T21:07:11.053Z,4.18
2022-12-15T21:09:37.464Z,4.55
2022-12-15T21:12:10.803Z,2.47
2022-12-15T21:14:37.189Z,3.03
2022-12-15T21:17:03.897Z,2.95
2022-12-15T21:19:30.735Z,2.78
2022-12-15T21:21:57.206Z,1.65
2022-12-15T21:24:27.300Z,1.95
2022-12-15T21:26:53.832Z,2.25
2022-12-15T21:29:23.306Z,1.17
2022-12-15T21:31:50.492Z,2.63
2022-12-15T21:34:17.172Z,3.33
2022-12-15T21:36:45.449Z,2.60
2022-12-15T21:39:14.400Z,1.95
2022-12-15T21:41:42.601Z,2.42
2022-12-15T21:44:12.377Z,1.95
2022-12-15T21:46:38.886Z,2.75
2022-12-15T21:49:20.526Z,2.10
2022-12-15T21:52:07.351Z,2.28
2022-12-15T21:54:34.916Z,0.70
2022-12-15T21:57:02.736Z,1.13
2022-12-15T21:59:31.028Z,1.08
2022-12-15T22:01:57.666Z,0.85
2022-12-15T22:04:25.393Z,0.82
2022-12-15T22:06:51.750Z,1.30
2022-12-15T22:09:18.835Z,1.02
2022-12-15T22:11:46.606Z,1.25
2022-12-15T22:14:19.200Z,1.15
2022-12-15T22:16:45.506Z,0.65
2022-12-15T22:19:13.481Z,0.90
2022-12-15T22:21:41.632Z,4.00
2022-12-15T22:24:08.803Z,5.53
2022-12-15T22:26:35.680Z,4.30
2022-12-15T22:29:03.073Z,12.02
2022-12-15T22:31:29.485Z,13.65
2022-12-15T22:33:55.884Z,11.10
2022-12-15T22:36:22.257Z,13.70
2022-12-15T22:38:48.593Z,11.05
2022-12-15T22:41:19.383Z,15.82
2022-12-15T22:43:47.469Z,13.02
2022-12-15T22:46:14.835Z,12.75
2022-12-15T22:48:43.453Z,10.88
2022-12-15T22:51:12.115Z,12.13
2022-12-15T22:53:38.584Z,13.10
2022-12-15T22:56:10.261Z,9.95
2022-12-15T22:58:39.151Z,9.02
2022-12-15T23:01:06.611Z,7.72
2022-12-15T23:03:34.125Z,16.48
2022-12-15T23:06:02.142Z,22.83
2022-12-15T23:08:28.986Z,14.73
2022-12-15T23:11:15.392Z,7.50
2022-12-15T23:13:41.683Z,6.43
2022-12-15T23:16:21.511Z,6.22
2022-12-15T23:18:49.331Z,10.02
2022-12-15T23:21:18.035Z,10.95
2022-12-15T23:23:44.603Z,17.63
2022-12-15T23:26:11.169Z,18.23
2022-12-15T23:28:37.788Z,9.30
2022-12-15T23:31:04.943Z,10.52
2022-12-15T23:33:31.731Z,13.80
2022-12-15T23:35:59.134Z,7.68
2022-12-15T23:38:26.058Z,8.10
2022-12-15T23:40:53.325Z,12.32
2022-12-15T23:43:20.091Z,7.20
2022-12-15T23:45:46.555Z,8.10
2022-12-15T23:48:13.580Z,9.02
2022-12-15T23:50:39.870Z,5.05
2022-12-15T23:53:06.565Z,6.28
2022-12-15T23:55:36.449Z,3.25
2022-12-15T23:58:03.324Z,2.95
